sensor_id;sensor_type;location;lat;lon;timestamp;temperature;humidity
6355;DHT22;3210;48.708;9.030;2022-10-30T00:01:52;12.40;1.00
6355;DHT22;3210;48.708;9.030;2022-10-30T00:04:19;12.30;1.00
6355;DHT22;3210;48.708;9.030;2022-10-30T00:06:45;12.30;1.00
6355;DHT22;3210;48.708;9.030;2022-10-30T00:09:15;12.40;1.00
6355;DHT22;3210;48.708;9.030;2022-10-30T00:11:44;12.40;1.00
6355;DHT22;3210;48.708;9.030;2022-10-30T00:14:14;12.40;1.00
6355;DHT22;3210;48.708;9.030;2022-10-30T00:16:41;12.40;1.00
6355;DHT22;3210;48.708;9.030;2022-10-30T00:19:07;12.40;1.00
6355;DHT22;3210;48.708;9.030;2022-10-30T00:21:34;12.30;19.00
6355;DHT22;3210;48.708;9.030;2022-10-30T00:24:01;12.30;1.00
6355;DHT22;3210;48.708;9.030;2022-10-30T00:26:29;12.20;1.00
6355;DHT22;3210;48.708;9.030;2022-10-30T00:28:57;12.30;1.00
6355;DHT22;3210;48.708;9.030;2022-10-30T00:31:24;12.20;1.00
6355;DHT22;3210;48.708;9.030;2022-10-30T00:33:53;12.30;1.00
6355;DHT22;3210;48.708;9.030;2022-10-30T00:36:20;12.30;1.00
6355;DHT22;3210;48.708;9.030;2022-10-30T00:38:48;12.30;1.00
6355;DHT22;3210;48.708;9.030;2022-10-30T00:41:15;12.40;1.00
6355;DHT22;3210;48.708;9.030;2022-10-30T00:43:44;12.30;1.00
6355;DHT22;3210;48.708;9.030;2022-10-30T00:46:15;12.40;1.00
6355;DHT22;3210;48.708;9.030;2022-10-30T00:48:46;12.40;1.00
6355;DHT22;3210;48.708;9.030;2022-10-30T00:51:14;12.30;1.00
6355;DHT22;3210;48.708;9.030;2022-10-30T00:53:42;12.30;1.00
6355;DHT22;3210;48.708;9.030;2022-10-30T00:56:10;12.30;1.00
6355;DHT22;3210;48.708;9.030;2022-10-30T00:58:40;12.30;1.00
6355;DHT22;3210;48.708;9.030;2022-10-30T01:01:14;12.40;1.00
6355;DHT22;3210;48.708;9.030;2022-10-30T01:03:43;12.30;1.00
6355;DHT22;3210;48.708;9.030;2022-10-30T01:06:11;12.30;1.00
6355;DHT22;3210;48.708;9.030;2022-10-30T01:08:38;12.30;1.00
6355;DHT22;3210;48.708;9.030;2022-10-30T01:11:06;12.20;1.00
6355;DHT22;3210;48.708;9.030;2022-10-30T01:13:35;12.30;1.00
6355;DHT22;3210;48.708;9.030;2022-10-30T01:16:16;12.30;1.00
6355;DHT22;3210;48.708;9.030;2022-10-30T01:18:52;12.40;1.00
6355;DHT22;3210;48.708;9.030;2022-10-30T01:21:32;12.40;1.00
6355;DHT22;3210;48.708;9.030;2022-10-30T01:24:12;12.30;99.90
6355;DHT22;3210;48.708;9.030;2022-10-30T01:26:49;12.30;99.90
6355;DHT22;3210;48.708;9.030;2022-10-30T01:29:25;12.30;1.00
6355;DHT22;3210;48.708;9.030;2022-10-30T01:32:10;12.20;1.00
6355;DHT22;3210;48.708;9.030;2022-10-30T01:34:43;12.20;1.00
6355;DHT22;3210;48.708;9.030;2022-10-30T01:37:16;12.20;1.00
6355;DHT22;3210;48.708;9.030;2022-10-30T01:39:45;12.10;1.00
6355;DHT22;3210;48.708;9.030;2022-10-30T01:42:46;12.10;1.00
6355;DHT22;3210;48.708;9.030;2022-10-30T01:45:19;12.10;1.00
6355;DHT22;3210;48.708;9.030;2022-10-30T01:48:01;12.10;1.00
6355;DHT22;3210;48.708;9.030;2022-10-30T01:50:37;12.10;1.00
6355;DHT22;3210;48.708;9.030;2022-10-30T01:53:13;12.00;1.00
6355;DHT22;3210;48.708;9.030;2022-10-30T01:55:48;12.00;29.40
6355;DHT22;3210;48.708;9.030;2022-10-30T01:58:23;12.00;64.20
6355;DHT22;3210;48.708;9.030;2022-10-30T02:00:54;12.00;90.30
6355;DHT22;3210;48.708;9.030;2022-10-30T02:03:24;12.00;99.90
6355;DHT22;3210;48.708;9.030;2022-10-30T02:05:52;12.10;95.90
6355;DHT22;3210;48.708;9.030;2022-10-30T02:08:20;12.00;60.50
6355;DHT22;3210;48.708;9.030;2022-10-30T02:10:49;12.00;43.30
6355;DHT22;3210;48.708;9.030;2022-10-30T02:13:17;12.00;50.80
6355;DHT22;3210;48.708;9.030;2022-10-30T02:15:44;12.10;16.90
6355;DHT22;3210;48.708;9.030;2022-10-30T02:18:12;12.00;1.00
6355;DHT22;3210;48.708;9.030;2022-10-30T02:20:41;12.00;1.00
6355;DHT22;3210;48.708;9.030;2022-10-30T02:23:08;12.00;1.00
6355;DHT22;3210;48.708;9.030;2022-10-30T02:25:37;12.00;1.00
6355;DHT22;3210;48.708;9.030;2022-10-30T02:28:04;11.90;1.00
6355;DHT22;3210;48.708;9.030;2022-10-30T02:30:31;11.90;1.00
6355;DHT22;3210;48.708;9.030;2022-10-30T02:32:58;11.90;1.00
6355;DHT22;3210;48.708;9.030;2022-10-30T02:35:25;11.90;1.00
6355;DHT22;3210;48.708;9.030;2022-10-30T02:37:53;12.00;1.00
6355;DHT22;3210;48.708;9.030;2022-10-30T02:40:20;11.90;1.00
6355;DHT22;3210;48.708;9.030;2022-10-30T02:42:50;11.90;1.00
6355;DHT22;3210;48.708;9.030;2022-10-30T02:45:26;11.90;1.00
6355;DHT22;3210;48.708;9.030;2022-10-30T02:47:53;11.90;1.00
6355;DHT22;3210;48.708;9.030;2022-10-30T02:50:20;11.80;1.00
6355;DHT22;3210;48.708;9.030;2022-10-30T02:52:46;11.90;1.00
6355;DHT22;3210;48.708;9.030;2022-10-30T02:55:15;11.80;1.00
6355;DHT22;3210;48.708;9.030;2022-10-30T02:57:42;11.80;1.00
6355;DHT22;3210;48.708;9.030;2022-10-30T03:00:10;11.80;1.00
6355;DHT22;3210;48.708;9.030;2022-10-30T03:02:37;11.80;1.00
6355;DHT22;3210;48.708;9.030;2022-10-30T03:05:04;11.70;1.00
6355;DHT22;3210;48.708;9.030;2022-10-30T03:07:31;11.80;13.10
6355;DHT22;3210;48.708;9.030;2022-10-30T03:09:58;11.70;32.30
6355;DHT22;3210;48.708;9.030;2022-10-30T03:12:26;11.70;91.70
6355;DHT22;3210;48.708;9.030;2022-10-30T03:14:53;11.60;99.90
6355;DHT22;3210;48.708;9.030;2022-10-30T03:17:20;11.60;99.90
6355;DHT22;3210;48.708;9.030;2022-10-30T03:19:46;11.70;99.90
6355;DHT22;3210;48.708;9.030;2022-10-30T03:22:13;11.50;99.90
6355;DHT22;3210;48.708;9.030;2022-10-30T03:24:40;11.50;99.90
6355;DHT22;3210;48.708;9.030;2022-10-30T03:27:07;11.50;99.90
6355;DHT22;3210;48.708;9.030;2022-10-30T03:29:35;11.50;99.90
6355;DHT22;3210;48.708;9.030;2022-10-30T03:32:02;11.40;99.90
6355;DHT22;3210;48.708;9.030;2022-10-30T03:34:29;11.50;99.90
6355;DHT22;3210;48.708;9.030;2022-10-30T03:36:55;11.40;99.90
6355;DHT22;3210;48.708;9.030;2022-10-30T03:39:22;11.40;99.90
6355;DHT22;3210;48.708;9.030;2022-10-30T03:41:49;11.30;99.90
6355;DHT22;3210;48.708;9.030;2022-10-30T03:44:16;11.40;99.90
6355;DHT22;3210;48.708;9.030;2022-10-30T03:46:44;11.30;99.90
6355;DHT22;3210;48.708;9.030;2022-10-30T03:49:11;11.30;99.90
6355;DHT22;3210;48.708;9.030;2022-10-30T03:51:38;11.20;99.90
6355;DHT22;3210;48.708;9.030;2022-10-30T03:54:04;11.20;99.90
6355;DHT22;3210;48.708;9.030;2022-10-30T03:56:31;11.20;99.90
6355;DHT22;3210;48.708;9.030;2022-10-30T03:58:58;11.10;99.90
6355;DHT22;3210;48.708;9.030;2022-10-30T04:01:25;11.20;99.90
6355;DHT22;3210;48.708;9.030;2022-10-30T04:03:53;11.10;99.90
6355;DHT22;3210;48.708;9.030;2022-10-30T04:06:20;11.10;99.90
6355;DHT22;3210;48.708;9.030;2022-10-30T04:08:47;11.10;99.90
6355;DHT22;3210;48.708;9.030;2022-10-30T04:11:14;11.10;99.90
6355;DHT22;3210;48.708;9.030;2022-10-30T04:13:41;11.00;99.90
6355;DHT22;3210;48.708;9.030;2022-10-30T04:16:07;11.00;99.90
6355;DHT22;3210;48.708;9.030;2022-10-30T04:18:34;10.90;99.90
6355;DHT22;3210;48.708;9.030;2022-10-30T04:21:03;10.90;99.90
6355;DHT22;3210;48.708;9.030;2022-10-30T04:23:29;11.00;99.90
6355;DHT22;3210;48.708;9.030;2022-10-30T04:25:59;11.00;99.90
6355;DHT22;3210;48.708;9.030;2022-10-30T04:28:25;10.90;99.90
6355;DHT22;3210;48.708;9.030;2022-10-30T04:30:52;10.90;99.90
6355;DHT22;3210;48.708;9.030;2022-10-30T04:33:19;10.90;99.90
6355;DHT22;3210;48.708;9.030;2022-10-30T04:35:46;10.80;99.90
6355;DHT22;3210;48.708;9.030;2022-10-30T04:38:14;10.80;1.00
6355;DHT22;3210;48.708;9.030;2022-10-30T04:40:43;10.70;1.00
6355;DHT22;3210;48.708;9.030;2022-10-30T04:43:11;10.80;1.00
6355;DHT22;3210;48.708;9.030;2022-10-30T04:45:38;10.70;1.00
6355;DHT22;3210;48.708;9.030;2022-10-30T04:48:07;10.70;1.00
6355;DHT22;3210;48.708;9.030;2022-10-30T04:50:34;10.70;1.00
6355;DHT22;3210;48.708;9.030;2022-10-30T04:53:03;10.60;1.00
6355;DHT22;3210;48.708;9.030;2022-10-30T04:55:31;10.70;1.00
6355;DHT22;3210;48.708;9.030;2022-10-30T04:57:59;10.60;1.00
6355;DHT22;3210;48.708;9.030;2022-10-30T05:00:28;10.60;1.00
6355;DHT22;3210;48.708;9.030;2022-10-30T05:02:57;10.50;1.20
6355;DHT22;3210;48.708;9.030;2022-10-30T05:05:24;10.50;80.40
6355;DHT22;3210;48.708;9.030;2022-10-30T05:07:51;10.50;35.00
6355;DHT22;3210;48.708;9.030;2022-10-30T05:10:18;10.50;1.00
6355;DHT22;3210;48.708;9.030;2022-10-30T05:12:46;10.50;1.00
6355;DHT22;3210;48.708;9.030;2022-10-30T05:15:13;10.50;1.00
6355;DHT22;3210;48.708;9.030;2022-10-30T05:17:52;10.50;1.00
6355;DHT22;3210;48.708;9.030;2022-10-30T05:20:21;10.40;1.00
6355;DHT22;3210;48.708;9.030;2022-10-30T05:22:53;10.40;29.10
6355;DHT22;3210;48.708;9.030;2022-10-30T05:25:20;10.40;98.60
6355;DHT22;3210;48.708;9.030;2022-10-30T05:27:48;10.40;99.90
6355;DHT22;3210;48.708;9.030;2022-10-30T05:30:15;10.30;74.30
6355;DHT22;3210;48.708;9.030;2022-10-30T05:32:42;10.30;99.90
6355;DHT22;3210;48.708;9.030;2022-10-30T05:35:09;10.30;99.90
6355;DHT22;3210;48.708;9.030;2022-10-30T05:37:36;10.30;57.90
6355;DHT22;3210;48.708;9.030;2022-10-30T05:40:03;10.30;1.00
6355;DHT22;3210;48.708;9.030;2022-10-30T05:42:30;10.30;1.00
6355;DHT22;3210;48.708;9.030;2022-10-30T05:44:58;10.20;1.00
6355;DHT22;3210;48.708;9.030;2022-10-30T05:47:25;10.20;1.50
6355;DHT22;3210;48.708;9.030;2022-10-30T05:49:52;10.10;30.50
6355;DHT22;3210;48.708;9.030;2022-10-30T05:52:19;10.20;92.80
6355;DHT22;3210;48.708;9.030;2022-10-30T05:54:45;10.10;99.90
6355;DHT22;3210;48.708;9.030;2022-10-30T05:57:12;10.10;99.90
6355;DHT22;3210;48.708;9.030;2022-10-30T05:59:39;10.10;99.90
6355;DHT22;3210;48.708;9.030;2022-10-30T06:02:07;10.10;71.30
6355;DHT22;3210;48.708;9.030;2022-10-30T06:04:34;10.00;99.90
6355;DHT22;3210;48.708;9.030;2022-10-30T06:07:01;10.00;99.90
6355;DHT22;3210;48.708;9.030;2022-10-30T06:09:28;9.90;99.90
6355;DHT22;3210;48.708;9.030;2022-10-30T06:11:55;9.90;99.90
6355;DHT22;3210;48.708;9.030;2022-10-30T06:14:23;10.00;99.90
6355;DHT22;3210;48.708;9.030;2022-10-30T06:16:49;10.00;99.90
6355;DHT22;3210;48.708;9.030;2022-10-30T06:19:18;10.00;71.20
6355;DHT22;3210;48.708;9.030;2022-10-30T06:21:45;10.00;99.90
6355;DHT22;3210;48.708;9.030;2022-10-30T06:24:12;10.00;99.90
6355;DHT22;3210;48.708;9.030;2022-10-30T06:26:39;10.00;99.90
6355;DHT22;3210;48.708;9.030;2022-10-30T06:29:06;10.00;51.80
6355;DHT22;3210;48.708;9.030;2022-10-30T06:31:33;10.00;96.50
6355;DHT22;3210;48.708;9.030;2022-10-30T06:34:00;10.00;26.60
6355;DHT22;3210;48.708;9.030;2022-10-30T06:36:28;10.10;1.00
6355;DHT22;3210;48.708;9.030;2022-10-30T06:38:55;10.10;1.00
6355;DHT22;3210;48.708;9.030;2022-10-30T06:41:22;10.10;1.00
6355;DHT22;3210;48.708;9.030;2022-10-30T06:43:49;10.20;1.00
6355;DHT22;3210;48.708;9.030;2022-10-30T06:46:15;10.30;1.00
6355;DHT22;3210;48.708;9.030;2022-10-30T06:48:42;10.30;99.90
6355;DHT22;3210;48.708;9.030;2022-10-30T06:51:10;10.50;99.90
6355;DHT22;3210;48.708;9.030;2022-10-30T06:53:41;10.40;99.90
6355;DHT22;3210;48.708;9.030;2022-10-30T06:56:08;10.50;99.90
6355;DHT22;3210;48.708;9.030;2022-10-30T06:58:35;10.50;99.90
6355;DHT22;3210;48.708;9.030;2022-10-30T07:01:03;10.60;99.90
6355;DHT22;3210;48.708;9.030;2022-10-30T07:03:31;10.60;99.90
6355;DHT22;3210;48.708;9.030;2022-10-30T07:05:58;10.70;99.90
6355;DHT22;3210;48.708;9.030;2022-10-30T07:08:25;10.80;99.90
6355;DHT22;3210;48.708;9.030;2022-10-30T07:10:55;11.00;99.90
6355;DHT22;3210;48.708;9.030;2022-10-30T07:13:22;10.90;40.10
6355;DHT22;3210;48.708;9.030;2022-10-30T07:15:49;11.00;32.50
6355;DHT22;3210;48.708;9.030;2022-10-30T07:18:16;11.00;54.20
6355;DHT22;3210;48.708;9.030;2022-10-30T07:20:42;11.00;28.60
6355;DHT22;3210;48.708;9.030;2022-10-30T07:23:09;11.10;35.90
6355;DHT22;3210;48.708;9.030;2022-10-30T07:25:36;11.10;8.40
6355;DHT22;3210;48.708;9.030;2022-10-30T07:28:04;11.10;1.00
6355;DHT22;3210;48.708;9.030;2022-10-30T07:30:31;11.10;1.00
6355;DHT22;3210;48.708;9.030;2022-10-30T07:32:59;11.20;1.00
6355;DHT22;3210;48.708;9.030;2022-10-30T07:35:27;11.20;1.00
6355;DHT22;3210;48.708;9.030;2022-10-30T07:37:54;11.30;1.00
6355;DHT22;3210;48.708;9.030;2022-10-30T07:40:21;11.30;1.00
6355;DHT22;3210;48.708;9.030;2022-10-30T07:42:48;11.40;1.00
6355;DHT22;3210;48.708;9.030;2022-10-30T07:45:16;11.60;1.00
6355;DHT22;3210;48.708;9.030;2022-10-30T07:47:43;11.70;1.00
6355;DHT22;3210;48.708;9.030;2022-10-30T07:50:10;11.80;1.00
6355;DHT22;3210;48.708;9.030;2022-10-30T07:52:37;11.90;1.00
6355;DHT22;3210;48.708;9.030;2022-10-30T07:55:05;12.00;1.00
6355;DHT22;3210;48.708;9.030;2022-10-30T07:57:34;12.10;99.90
6355;DHT22;3210;48.708;9.030;2022-10-30T08:00:02;12.30;99.90
6355;DHT22;3210;48.708;9.030;2022-10-30T08:02:31;12.40;99.90
6355;DHT22;3210;48.708;9.030;2022-10-30T08:04:57;12.50;99.90
6355;DHT22;3210;48.708;9.030;2022-10-30T08:07:28;12.70;99.90
6355;DHT22;3210;48.708;9.030;2022-10-30T08:09:55;12.80;99.90
6355;DHT22;3210;48.708;9.030;2022-10-30T08:12:22;12.90;64.50
6355;DHT22;3210;48.708;9.030;2022-10-30T08:14:49;13.00;13.00
6355;DHT22;3210;48.708;9.030;2022-10-30T08:17:16;13.20;1.00
6355;DHT22;3210;48.708;9.030;2022-10-30T08:19:44;13.30;1.00
6355;DHT22;3210;48.708;9.030;2022-10-30T08:22:11;13.40;1.00
6355;DHT22;3210;48.708;9.030;2022-10-30T08:24:38;13.50;1.00
6355;DHT22;3210;48.708;9.030;2022-10-30T08:27:05;13.70;1.00
6355;DHT22;3210;48.708;9.030;2022-10-30T08:29:32;13.70;1.00
6355;DHT22;3210;48.708;9.030;2022-10-30T08:31:59;13.90;1.00
6355;DHT22;3210;48.708;9.030;2022-10-30T08:34:26;14.00;1.00
6355;DHT22;3210;48.708;9.030;2022-10-30T08:36:57;14.20;1.00
6355;DHT22;3210;48.708;9.030;2022-10-30T08:39:24;14.30;1.00
6355;DHT22;3210;48.708;9.030;2022-10-30T08:41:51;14.40;1.00
6355;DHT22;3210;48.708;9.030;2022-10-30T08:44:18;14.60;1.00
6355;DHT22;3210;48.708;9.030;2022-10-30T08:46:45;14.80;99.90
6355;DHT22;3210;48.708;9.030;2022-10-30T08:49:11;14.80;99.90
6355;DHT22;3210;48.708;9.030;2022-10-30T08:51:38;15.00;99.90
6355;DHT22;3210;48.708;9.030;2022-10-30T08:54:08;15.10;99.90
6355;DHT22;3210;48.708;9.030;2022-10-30T08:56:35;15.30;99.90
6355;DHT22;3210;48.708;9.030;2022-10-30T08:59:01;15.40;99.90
6355;DHT22;3210;48.708;9.030;2022-10-30T09:01:28;15.60;99.90
6355;DHT22;3210;48.708;9.030;2022-10-30T09:03:55;16.00;99.90
6355;DHT22;3210;48.708;9.030;2022-10-30T09:06:22;16.30;99.90
6355;DHT22;3210;48.708;9.030;2022-10-30T09:08:49;16.50;99.90
6355;DHT22;3210;48.708;9.030;2022-10-30T09:11:17;16.60;99.90
6355;DHT22;3210;48.708;9.030;2022-10-30T09:13:44;16.80;99.90
6355;DHT22;3210;48.708;9.030;2022-10-30T09:16:10;17.00;99.90
6355;DHT22;3210;48.708;9.030;2022-10-30T09:18:37;17.10;96.60
6355;DHT22;3210;48.708;9.030;2022-10-30T09:21:04;17.30;74.10
6355;DHT22;3210;48.708;9.030;2022-10-30T09:23:31;17.40;61.20
6355;DHT22;3210;48.708;9.030;2022-10-30T09:25:58;17.50;59.40
6355;DHT22;3210;48.708;9.030;2022-10-30T09:28:26;17.50;54.40
6355;DHT22;3210;48.708;9.030;2022-10-30T09:30:53;17.60;55.80
6355;DHT22;3210;48.708;9.030;2022-10-30T09:33:21;17.60;43.10
6355;DHT22;3210;48.708;9.030;2022-10-30T09:35:48;17.90;32.70
6355;DHT22;3210;48.708;9.030;2022-10-30T09:38:15;18.10;24.60
6355;DHT22;3210;48.708;9.030;2022-10-30T09:40:57;18.10;27.00
6355;DHT22;3210;48.708;9.030;2022-10-30T09:43:40;18.40;17.70
6355;DHT22;3210;48.708;9.030;2022-10-30T09:46:21;18.60;9.60
6355;DHT22;3210;48.708;9.030;2022-10-30T09:49:04;18.80;3.50
6355;DHT22;3210;48.708;9.030;2022-10-30T09:51:58;19.00;1.00
6355;DHT22;3210;48.708;9.030;2022-10-30T09:54:38;19.10;1.00
6355;DHT22;3210;48.708;9.030;2022-10-30T09:57:14;19.20;1.00
6355;DHT22;3210;48.708;9.030;2022-10-30T09:59:57;19.30;1.00
6355;DHT22;3210;48.708;9.030;2022-10-30T10:02:33;19.30;1.00
6355;DHT22;3210;48.708;9.030;2022-10-30T10:05:12;19.50;1.00
6355;DHT22;3210;48.708;9.030;2022-10-30T10:07:44;19.60;1.00
6355;DHT22;3210;48.708;9.030;2022-10-30T10:10:18;19.70;1.00
6355;DHT22;3210;48.708;9.030;2022-10-30T10:12:47;19.80;1.00
6355;DHT22;3210;48.708;9.030;2022-10-30T10:15:30;20.00;1.00
6355;DHT22;3210;48.708;9.030;2022-10-30T10:18:00;20.10;1.00
6355;DHT22;3210;48.708;9.030;2022-10-30T10:20:35;20.20;1.00
6355;DHT22;3210;48.708;9.030;2022-10-30T10:23:13;20.20;1.00
6355;DHT22;3210;48.708;9.030;2022-10-30T10:25:46;20.30;1.00
6355;DHT22;3210;48.708;9.030;2022-10-30T10:28:25;20.50;1.00
6355;DHT22;3210;48.708;9.030;2022-10-30T10:31:03;20.50;1.00
6355;DHT22;3210;48.708;9.030;2022-10-30T10:33:47;20.60;1.00
6355;DHT22;3210;48.708;9.030;2022-10-30T10:36:25;20.70;1.00
6355;DHT22;3210;48.708;9.030;2022-10-30T10:39:06;20.80;1.00
6355;DHT22;3210;48.708;9.030;2022-10-30T10:41:50;20.90;1.00
6355;DHT22;3210;48.708;9.030;2022-10-30T10:44:30;20.90;1.00
6355;DHT22;3210;48.708;9.030;2022-10-30T10:47:17;21.00;1.00
6355;DHT22;3210;48.708;9.030;2022-10-30T10:49:59;21.10;1.00
6355;DHT22;3210;48.708;9.030;2022-10-30T10:52:34;21.20;1.00
6355;DHT22;3210;48.708;9.030;2022-10-30T10:55:05;21.30;1.00
6355;DHT22;3210;48.708;9.030;2022-10-30T10:57:37;21.30;1.00
6355;DHT22;3210;48.708;9.030;2022-10-30T11:00:14;21.40;1.00
6355;DHT22;3210;48.708;9.030;2022-10-30T11:02:49;21.50;1.00
6355;DHT22;3210;48.708;9.030;2022-10-30T11:05:25;21.60;1.00
6355;DHT22;3210;48.708;9.030;2022-10-30T11:07:57;21.70;1.00
6355;DHT22;3210;48.708;9.030;2022-10-30T11:10:24;21.80;1.00
6355;DHT22;3210;48.708;9.030;2022-10-30T11:12:51;21.90;1.00
6355;DHT22;3210;48.708;9.030;2022-10-30T11:15:35;21.90;1.00
6355;DHT22;3210;48.708;9.030;2022-10-30T11:18:06;22.00;1.00
6355;DHT22;3210;48.708;9.030;2022-10-30T11:20:40;22.00;1.00
6355;DHT22;3210;48.708;9.030;2022-10-30T11:26:29;22.10;1.00
6355;DHT22;3210;48.708;9.030;2022-10-30T11:28:58;22.20;1.00
6355;DHT22;3210;48.708;9.030;2022-10-30T11:31:28;22.20;1.00
6355;DHT22;3210;48.708;9.030;2022-10-30T11:34:13;22.20;1.00
6355;DHT22;3210;48.708;9.030;2022-10-30T11:36:49;22.20;1.00
6355;DHT22;3210;48.708;9.030;2022-10-30T11:39:18;22.20;1.00
6355;DHT22;3210;48.708;9.030;2022-10-30T11:41:49;22.10;1.00
6355;DHT22;3210;48.708;9.030;2022-10-30T11:44:21;22.00;1.00
6355;DHT22;3210;48.708;9.030;2022-10-30T11:46:48;21.80;1.00
6355;DHT22;3210;48.708;9.030;2022-10-30T11:49:42;21.70;1.00
6355;DHT22;3210;48.708;9.030;2022-10-30T11:52:22;21.60;1.00
6355;DHT22;3210;48.708;9.030;2022-10-30T11:54:51;21.50;1.00
6355;DHT22;3210;48.708;9.030;2022-10-30T11:57:26;21.60;1.00
6355;DHT22;3210;48.708;9.030;2022-10-30T11:59:55;21.60;1.00
6355;DHT22;3210;48.708;9.030;2022-10-30T12:02:26;21.60;1.00
6355;DHT22;3210;48.708;9.030;2022-10-30T12:04:55;21.50;1.00
6355;DHT22;3210;48.708;9.030;2022-10-30T12:07:28;21.50;1.00
6355;DHT22;3210;48.708;9.030;2022-10-30T12:09:56;21.70;1.00
6355;DHT22;3210;48.708;9.030;2022-10-30T12:12:27;21.80;1.00
6355;DHT22;3210;48.708;9.030;2022-10-30T12:15:08;22.10;1.00
6355;DHT22;3210;48.708;9.030;2022-10-30T12:17:37;22.10;1.00
6355;DHT22;3210;48.708;9.030;2022-10-30T12:20:11;22.10;1.00
6355;DHT22;3210;48.708;9.030;2022-10-30T12:22:39;22.10;1.00
6355;DHT22;3210;48.708;9.030;2022-10-30T12:25:15;22.30;1.00
6355;DHT22;3210;48.708;9.030;2022-10-30T12:27:44;22.40;1.00
6355;DHT22;3210;48.708;9.030;2022-10-30T12:30:15;22.30;1.00
6355;DHT22;3210;48.708;9.030;2022-10-30T12:32:48;22.30;1.00
6355;DHT22;3210;48.708;9.030;2022-10-30T12:35:31;22.40;1.00
6355;DHT22;3210;48.708;9.030;2022-10-30T12:38:02;22.50;1.00
6355;DHT22;3210;48.708;9.030;2022-10-30T12:40:30;22.50;1.00
6355;DHT22;3210;48.708;9.030;2022-10-30T12:43:07;22.40;1.00
6355;DHT22;3210;48.708;9.030;2022-10-30T12:45:40;22.40;1.00
6355;DHT22;3210;48.708;9.030;2022-10-30T12:48:14;22.50;1.00
6355;DHT22;3210;48.708;9.030;2022-10-30T12:50:49;22.50;1.00
6355;DHT22;3210;48.708;9.030;2022-10-30T12:53:25;22.50;1.00
6355;DHT22;3210;48.708;9.030;2022-10-30T12:55:57;22.50;1.00
6355;DHT22;3210;48.708;9.030;2022-10-30T12:58:32;22.70;1.00
6355;DHT22;3210;48.708;9.030;2022-10-30T13:01:08;22.70;1.00
6355;DHT22;3210;48.708;9.030;2022-10-30T13:03:41;22.60;1.00
6355;DHT22;3210;48.708;9.030;2022-10-30T13:06:16;22.60;1.00
6355;DHT22;3210;48.708;9.030;2022-10-30T13:08:50;22.50;1.00
6355;DHT22;3210;48.708;9.030;2022-10-30T13:11:35;22.60;1.00
6355;DHT22;3210;48.708;9.030;2022-10-30T13:14:04;22.60;1.00
6355;DHT22;3210;48.708;9.030;2022-10-30T13:16:34;22.70;1.00
6355;DHT22;3210;48.708;9.030;2022-10-30T13:19:01;22.60;1.00
6355;DHT22;3210;48.708;9.030;2022-10-30T13:21:36;22.50;1.00
6355;DHT22;3210;48.708;9.030;2022-10-30T13:24:10;22.50;1.00
6355;DHT22;3210;48.708;9.030;2022-10-30T13:26:42;22.60;1.00
6355;DHT22;3210;48.708;9.030;2022-10-30T13:29:19;22.60;1.00
6355;DHT22;3210;48.708;9.030;2022-10-30T13:32:05;22.70;1.00
6355;DHT22;3210;48.708;9.030;2022-10-30T13:34:40;22.70;1.00
6355;DHT22;3210;48.708;9.030;2022-10-30T13:37:17;22.70;1.00
6355;DHT22;3210;48.708;9.030;2022-10-30T13:39:55;22.70;1.00
6355;DHT22;3210;48.708;9.030;2022-10-30T13:42:45;22.60;1.00
6355;DHT22;3210;48.708;9.030;2022-10-30T13:45:40;22.80;1.00
6355;DHT22;3210;48.708;9.030;2022-10-30T13:48:15;22.90;1.00
6355;DHT22;3210;48.708;9.030;2022-10-30T13:51:07;22.90;1.00
6355;DHT22;3210;48.708;9.030;2022-10-30T13:53:44;22.80;1.00
6355;DHT22;3210;48.708;9.030;2022-10-30T13:56:24;22.80;1.00
6355;DHT22;3210;48.708;9.030;2022-10-30T13:59:00;22.60;1.00
6355;DHT22;3210;48.708;9.030;2022-10-30T14:01:33;22.50;1.00
6355;DHT22;3210;48.708;9.030;2022-10-30T14:04:04;22.30;1.00
6355;DHT22;3210;48.708;9.030;2022-10-30T14:06:39;22.30;1.00
6355;DHT22;3210;48.708;9.030;2022-10-30T14:09:15;22.20;1.00
6355;DHT22;3210;48.708;9.030;2022-10-30T14:11:44;22.00;1.00
6355;DHT22;3210;48.708;9.030;2022-10-30T14:14:26;21.90;1.00
6355;DHT22;3210;48.708;9.030;2022-10-30T14:17:10;21.60;1.00
6355;DHT22;3210;48.708;9.030;2022-10-30T14:22:38;21.40;1.00
6355;DHT22;3210;48.708;9.030;2022-10-30T14:25:13;21.10;1.00
6355;DHT22;3210;48.708;9.030;2022-10-30T14:27:41;20.90;1.00
6355;DHT22;3210;48.708;9.030;2022-10-30T14:30:17;20.70;1.00
6355;DHT22;3210;48.708;9.030;2022-10-30T14:32:51;20.60;1.00
6355;DHT22;3210;48.708;9.030;2022-10-30T14:35:35;20.50;1.00
6355;DHT22;3210;48.708;9.030;2022-10-30T14:38:25;20.40;1.00
6355;DHT22;3210;48.708;9.030;2022-10-30T14:46:57;20.00;1.00
6355;DHT22;3210;48.708;9.030;2022-10-30T14:49:45;19.80;1.00
6355;DHT22;3210;48.708;9.030;2022-10-30T14:52:19;19.80;1.00
6355;DHT22;3210;48.708;9.030;2022-10-30T14:54:51;19.70;1.00
6355;DHT22;3210;48.708;9.030;2022-10-30T14:57:22;19.60;1.00
6355;DHT22;3210;48.708;9.030;2022-10-30T15:00:26;19.50;1.00
6355;DHT22;3210;48.708;9.030;2022-10-30T15:02:56;19.50;1.00
6355;DHT22;3210;48.708;9.030;2022-10-30T15:08:37;19.20;1.00
6355;DHT22;3210;48.708;9.030;2022-10-30T15:11:29;19.10;1.00
6355;DHT22;3210;48.708;9.030;2022-10-30T15:13:59;19.00;1.00
6355;DHT22;3210;48.708;9.030;2022-10-30T15:16:28;19.00;1.00
6355;DHT22;3210;48.708;9.030;2022-10-30T15:18:58;18.90;1.00
6355;DHT22;3210;48.708;9.030;2022-10-30T15:21:27;18.80;1.00
6355;DHT22;3210;48.708;9.030;2022-10-30T15:23:58;18.70;1.00
6355;DHT22;3210;48.708;9.030;2022-10-30T15:26:31;18.60;1.00
6355;DHT22;3210;48.708;9.030;2022-10-30T15:29:00;18.70;1.00
6355;DHT22;3210;48.708;9.030;2022-10-30T15:31:29;18.40;1.00
6355;DHT22;3210;48.708;9.030;2022-10-30T15:33:58;18.30;1.00
6355;DHT22;3210;48.708;9.030;2022-10-30T15:36:26;18.30;1.00
6355;DHT22;3210;48.708;9.030;2022-10-30T15:39:06;18.10;1.00
6355;DHT22;3210;48.708;9.030;2022-10-30T15:41:41;18.10;1.00
6355;DHT22;3210;48.708;9.030;2022-10-30T15:44:10;18.00;1.00
6355;DHT22;3210;48.708;9.030;2022-10-30T15:46:39;17.90;1.00
6355;DHT22;3210;48.708;9.030;2022-10-30T15:49:12;17.70;1.00
6355;DHT22;3210;48.708;9.030;2022-10-30T15:51:43;17.60;1.00
6355;DHT22;3210;48.708;9.030;2022-10-30T15:54:12;17.50;1.00
6355;DHT22;3210;48.708;9.030;2022-10-30T15:56:42;17.30;1.00
6355;DHT22;3210;48.708;9.030;2022-10-30T15:59:16;17.10;1.00
6355;DHT22;3210;48.708;9.030;2022-10-30T16:01:46;17.00;1.00
6355;DHT22;3210;48.708;9.030;2022-10-30T16:04:14;16.90;1.00
6355;DHT22;3210;48.708;9.030;2022-10-30T16:06:48;16.80;1.00
6355;DHT22;3210;48.708;9.030;2022-10-30T16:09:15;16.70;1.00
6355;DHT22;3210;48.708;9.030;2022-10-30T16:11:42;16.70;1.00
6355;DHT22;3210;48.708;9.030;2022-10-30T16:14:13;16.50;1.00
6355;DHT22;3210;48.708;9.030;2022-10-30T16:16:42;16.50;1.00
6355;DHT22;3210;48.708;9.030;2022-10-30T16:19:20;16.30;1.00
6355;DHT22;3210;48.708;9.030;2022-10-30T16:21:50;16.20;1.00
6355;DHT22;3210;48.708;9.030;2022-10-30T16:24:17;16.10;1.00
6355;DHT22;3210;48.708;9.030;2022-10-30T16:26:44;16.00;1.00
6355;DHT22;3210;48.708;9.030;2022-10-30T16:29:23;15.90;1.00
6355;DHT22;3210;48.708;9.030;2022-10-30T16:31:51;15.80;1.00
6355;DHT22;3210;48.708;9.030;2022-10-30T16:34:23;15.80;1.00
6355;DHT22;3210;48.708;9.030;2022-10-30T16:36:54;15.60;1.00
6355;DHT22;3210;48.708;9.030;2022-10-30T16:39:25;15.40;1.00
6355;DHT22;3210;48.708;9.030;2022-10-30T16:41:55;15.40;1.00
6355;DHT22;3210;48.708;9.030;2022-10-30T16:44:26;15.40;1.00
6355;DHT22;3210;48.708;9.030;2022-10-30T16:46:54;15.20;1.00
6355;DHT22;3210;48.708;9.030;2022-10-30T16:49:26;15.10;1.00
6355;DHT22;3210;48.708;9.030;2022-10-30T16:51:58;15.00;1.00